sensor_id;sensor_type;location;lat;lon;timestamp;pressure;altitude;pressure_sealevel;temperature;humidity
54910;BME280;63189;51.240;9.964;2023-11-19T00:02:08;97490.00;;;4.35;100.00
54910;BME280;63189;51.240;9.964;2023-11-19T00:04:36;97478.81;;;4.38;100.00
54910;BME280;63189;51.240;9.964;2023-11-19T00:07:02;97475.38;;;4.36;100.00
54910;BME280;63189;51.240;9.964;2023-11-19T00:09:29;97486.53;;;4.40;100.00
54910;BME280;63189;51.240;9.964;2023-11-19T00:11:55;97475.34;;;4.39;100.00
54910;BME280;63189;51.240;9.964;2023-11-19T00:14:23;97483.88;;;4.44;100.00
54910;BME280;63189;51.240;9.964;2023-11-19T00:16:49;97480.41;;;4.48;100.00
54910;BME280;63189;51.240;9.964;2023-11-19T00:19:16;97463.19;;;4.46;100.00
54910;BME280;63189;51.240;9.964;2023-11-19T00:21:41;97476.94;;;4.48;100.00
54910;BME280;63189;51.240;9.964;2023-11-19T00:24:08;97477.75;;;4.53;100.00
54910;BME280;63189;51.240;9.964;2023-11-19T00:26:34;97462.31;;;4.48;100.00
54910;BME280;63189;51.240;9.964;2023-11-19T00:28:59;97474.22;;;4.57;100.00
54910;BME280;63189;51.240;9.964;2023-11-19T00:31:25;97458.72;;;4.57;100.00
54910;BME280;63189;51.240;9.964;2023-11-19T00:33:53;97458.72;;;4.57;100.00
54910;BME280;63189;51.240;9.964;2023-11-19T00:36:18;97459.53;;;4.62;100.00
54910;BME280;63189;51.240;9.964;2023-11-19T00:38:44;97453.50;;;4.63;100.00
54910;BME280;63189;51.240;9.964;2023-11-19T00:41:09;97442.34;;;4.61;100.00
54910;BME280;63189;51.240;9.964;2023-11-19T00:43:35;97430.31;;;4.60;100.00
54910;BME280;63189;51.240;9.964;2023-11-19T00:46:01;97439.72;;;4.62;100.00
54910;BME280;63189;51.240;9.964;2023-11-19T00:48:26;97415.66;;;4.62;100.00
54910;BME280;63189;51.240;9.964;2023-11-19T00:50:53;97415.59;;;4.65;100.00
54910;BME280;63189;51.240;9.964;2023-11-19T00:53:18;97420.75;;;4.65;100.00
54910;BME280;63189;51.240;9.964;2023-11-19T00:55:44;97418.09;;;4.68;100.00
54910;BME280;63189;51.240;9.964;2023-11-19T00:58:10;97405.19;;;4.68;100.00
54910;BME280;63189;51.240;9.964;2023-11-19T01:00:35;97404.31;;;4.71;100.00
54910;BME280;63189;51.240;9.964;2023-11-19T01:03:03;97400.00;;;4.71;100.00
54910;BME280;63189;51.240;9.964;2023-11-19T01:05:29;97398.31;;;4.69;100.00
54910;BME280;63189;51.240;9.964;2023-11-19T01:07:54;97393.91;;;4.75;100.00
54910;BME280;63189;51.240;9.964;2023-11-19T01:10:20;97404.22;;;4.75;100.00
54910;BME280;63189;51.240;9.964;2023-11-19T01:12:48;97388.72;;;4.77;100.00
54910;BME280;63189;51.240;9.964;2023-11-19T01:15:14;97397.31;;;4.77;100.00
54910;BME280;63189;51.240;9.964;2023-11-19T01:17:39;97391.25;;;4.80;100.00
54910;BME280;63189;51.240;9.964;2023-11-19T01:20:05;97376.66;;;4.77;100.00
54910;BME280;63189;51.240;9.964;2023-11-19T01:22:32;97368.88;;;4.80;100.00
54910;BME280;63189;51.240;9.964;2023-11-19T01:24:57;97370.56;;;4.81;100.00
54910;BME280;63189;51.240;9.964;2023-11-19T01:27:26;97355.84;;;4.86;100.00
54910;BME280;63189;51.240;9.964;2023-11-19T01:29:51;97349.84;;;4.84;100.00
54910;BME280;63189;51.240;9.964;2023-11-19T01:32:16;97355.00;;;4.84;100.00
54910;BME280;63189;51.240;9.964;2023-11-19T01:34:42;97348.09;;;4.86;100.00
54910;BME280;63189;51.240;9.964;2023-11-19T01:37:07;97348.91;;;4.88;100.00
54910;BME280;63189;51.240;9.964;2023-11-19T01:39:36;97354.91;;;4.90;100.00
54910;BME280;63189;51.240;9.964;2023-11-19T01:42:01;97354.03;;;4.91;100.00
54910;BME280;63189;51.240;9.964;2023-11-19T01:44:27;97345.44;;;4.89;100.00
54910;BME280;63189;51.240;9.964;2023-11-19T01:46:55;97342.75;;;4.96;100.00
54910;BME280;63189;51.240;9.964;2023-11-19T01:49:20;97332.44;;;4.96;100.00
54910;BME280;63189;51.240;9.964;2023-11-19T01:51:47;97330.66;;;4.98;100.00
54910;BME280;63189;51.240;9.964;2023-11-19T01:54:13;97318.59;;;4.98;100.00
54910;BME280;63189;51.240;9.964;2023-11-19T01:56:40;97302.22;;;5.01;100.00
54910;BME280;63189;51.240;9.964;2023-11-19T01:59:07;97307.38;;;5.01;100.00
54910;BME280;63189;51.240;9.964;2023-11-19T02:01:35;97299.63;;;5.01;100.00
54910;BME280;63189;51.240;9.964;2023-11-19T02:04:05;97301.31;;;5.00;100.00
54910;BME280;63189;51.240;9.964;2023-11-19T02:06:33;97301.38;;;4.99;100.00
54910;BME280;63189;51.240;9.964;2023-11-19T02:08:59;97313.34;;;5.03;100.00
54910;BME280;63189;51.240;9.964;2023-11-19T02:11:26;97308.97;;;5.06;100.00
54910;BME280;63189;51.240;9.964;2023-11-19T02:13:55;97311.50;;;5.09;100.00
54910;BME280;63189;51.240;9.964;2023-11-19T02:16:21;97311.50;;;5.09;100.00
54910;BME280;63189;51.240;9.964;2023-11-19T02:18:46;97322.59;;;5.14;100.00
54910;BME280;63189;51.240;9.964;2023-11-19T02:21:11;97320.91;;;5.13;100.00
54910;BME280;63189;51.240;9.964;2023-11-19T02:23:37;97317.34;;;5.19;100.00
54910;BME280;63189;51.240;9.964;2023-11-19T02:26:04;97321.63;;;5.20;100.00
54910;BME280;63189;51.240;9.964;2023-11-19T02:28:32;97314.75;;;5.19;100.00
54910;BME280;63189;51.240;9.964;2023-11-19T02:30:58;97308.69;;;5.20;100.00
54910;BME280;63189;51.240;9.964;2023-11-19T02:33:24;97312.13;;;5.22;100.00
54910;BME280;63189;51.240;9.964;2023-11-19T02:35:50;97310.28;;;5.27;100.00
54910;BME280;63189;51.240;9.964;2023-11-19T02:38:16;97308.53;;;5.29;100.00
54910;BME280;63189;51.240;9.964;2023-11-19T02:40:41;97298.16;;;5.31;100.00
54910;BME280;63189;51.240;9.964;2023-11-19T02:43:07;97293.91;;;5.28;100.00
54910;BME280;63189;51.240;9.964;2023-11-19T02:45:33;97286.09;;;5.30;100.00
54910;BME280;63189;51.240;9.964;2023-11-19T02:47:59;97293.81;;;5.33;100.00
54910;BME280;63189;51.240;9.964;2023-11-19T02:50:27;97292.13;;;5.32;100.00
54910;BME280;63189;51.240;9.964;2023-11-19T02:52:55;97273.97;;;5.35;100.00
54910;BME280;63189;51.240;9.964;2023-11-19T02:55:24;97261.00;;;5.36;100.00
54910;BME280;63189;51.240;9.964;2023-11-19T02:57:50;97251.53;;;5.35;100.00
54910;BME280;63189;51.240;9.964;2023-11-19T03:00:22;97264.44;;;5.37;100.00
54910;BME280;63189;51.240;9.964;2023-11-19T03:02:57;97261.81;;;5.38;100.00
54910;BME280;63189;51.240;9.964;2023-11-19T03:05:30;97257.41;;;5.43;100.00
54910;BME280;63189;51.240;9.964;2023-11-19T03:07:56;97240.25;;;5.39;100.00
54910;BME280;63189;51.240;9.964;2023-11-19T03:10:22;97253.97;;;5.43;100.00
54910;BME280;63189;51.240;9.964;2023-11-19T03:12:49;97239.31;;;5.43;100.00
54910;BME280;63189;51.240;9.964;2023-11-19T03:15:14;97237.59;;;5.44;100.00
54910;BME280;63189;51.240;9.964;2023-11-19T03:17:41;97243.53;;;5.47;100.00
54910;BME280;63189;51.240;9.964;2023-11-19T03:20:09;97243.53;;;5.47;100.00
54910;BME280;63189;51.240;9.964;2023-11-19T03:22:36;97225.50;;;5.44;100.00
54910;BME280;63189;51.240;9.964;2023-11-19T03:25:02;97227.97;;;5.49;100.00
54910;BME280;63189;51.240;9.964;2023-11-19T03:27:27;97246.06;;;5.49;100.00
54910;BME280;63189;51.240;9.964;2023-11-19T03:29:53;97230.56;;;5.49;100.00
54910;BME280;63189;51.240;9.964;2023-11-19T03:32:18;97232.22;;;5.53;100.00
54910;BME280;63189;51.240;9.964;2023-11-19T03:34:43;97242.47;;;5.56;100.00
54910;BME280;63189;51.240;9.964;2023-11-19T03:37:09;97238.97;;;5.59;100.00
54910;BME280;63189;51.240;9.964;2023-11-19T03:39:34;97223.53;;;5.56;100.00
54910;BME280;63189;51.240;9.964;2023-11-19T03:42:00;97207.22;;;5.54;100.00
54910;BME280;63189;51.240;9.964;2023-11-19T03:44:26;97199.41;;;5.55;100.00
54910;BME280;63189;51.240;9.964;2023-11-19T03:46:52;97204.59;;;5.55;100.00
54910;BME280;63189;51.240;9.964;2023-11-19T03:49:17;97203.63;;;5.59;100.00
54910;BME280;63189;51.240;9.964;2023-11-19T03:51:42;97209.56;;;5.64;100.00
54910;BME280;63189;51.240;9.964;2023-11-19T03:54:08;97207.78;;;5.66;100.00
54910;BME280;63189;51.240;9.964;2023-11-19T03:56:33;97203.44;;;5.67;100.00
54910;BME280;63189;51.240;9.964;2023-11-19T03:58:58;97202.53;;;5.69;100.00
54910;BME280;63189;51.240;9.964;2023-11-19T04:01:24;97193.09;;;5.67;100.00
54910;BME280;63189;51.240;9.964;2023-11-19T04:03:49;97178.31;;;5.72;100.00
54910;BME280;63189;51.240;9.964;2023-11-19T04:06:14;97189.50;;;5.74;100.00
54910;BME280;63189;51.240;9.964;2023-11-19T04:08:40;97185.97;;;5.76;100.00
54910;BME280;63189;51.240;9.964;2023-11-19T04:11:05;97181.69;;;5.75;100.00
54910;BME280;63189;51.240;9.964;2023-11-19T04:13:31;97184.31;;;5.74;100.00
54910;BME280;63189;51.240;9.964;2023-11-19T04:15:56;97187.63;;;5.79;100.00
54910;BME280;63189;51.240;9.964;2023-11-19T04:18:21;97184.16;;;5.80;100.00
54910;BME280;63189;51.240;9.964;2023-11-19T04:20:47;97180.69;;;5.81;100.00
54910;BME280;63189;51.240;9.964;2023-11-19T04:23:12;97170.34;;;5.81;100.00
54910;BME280;63189;51.240;9.964;2023-11-19T04:25:37;97153.97;;;5.80;100.00
54910;BME280;63189;51.240;9.964;2023-11-19T04:28:03;97154.75;;;5.84;100.00
54910;BME280;63189;51.240;9.964;2023-11-19T04:30:29;97143.56;;;5.84;100.00
54910;BME280;63189;51.240;9.964;2023-11-19T04:32:56;97143.44;;;5.88;100.00
54910;BME280;63189;51.240;9.964;2023-11-19T04:35:22;97148.63;;;5.88;100.00
54910;BME280;63189;51.240;9.964;2023-11-19T04:37:47;97144.34;;;5.87;100.00
54910;BME280;63189;51.240;9.964;2023-11-19T04:40:13;97136.56;;;5.87;100.00
54910;BME280;63189;51.240;9.964;2023-11-19T04:42:38;97143.38;;;5.91;100.00
54910;BME280;63189;51.240;9.964;2023-11-19T04:45:07;97149.41;;;5.92;100.00
54910;BME280;63189;51.240;9.964;2023-11-19T04:47:33;97152.78;;;5.95;100.00
54910;BME280;63189;51.240;9.964;2023-11-19T04:49:59;97171.63;;;6.00;100.00
54910;BME280;63189;51.240;9.964;2023-11-19T04:52:25;97165.59;;;6.00;100.00
54910;BME280;63189;51.240;9.964;2023-11-19T04:54:50;97157.78;;;6.01;100.00
54910;BME280;63189;51.240;9.964;2023-11-19T04:57:15;97149.97;;;6.04;100.00
54910;BME280;63189;51.240;9.964;2023-11-19T04:59:41;97138.72;;;6.05;100.00
54910;BME280;63189;51.240;9.964;2023-11-19T05:02:08;97142.94;;;6.10;100.00
54910;BME280;63189;51.240;9.964;2023-11-19T05:04:33;97148.03;;;6.13;100.00
54910;BME280;63189;51.240;9.964;2023-11-19T05:06:59;97146.44;;;6.07;100.00
54910;BME280;63189;51.240;9.964;2023-11-19T05:09:24;97150.66;;;6.11;100.00
54910;BME280;63189;51.240;9.964;2023-11-19T05:11:50;97150.59;;;6.13;100.00
54910;BME280;63189;51.240;9.964;2023-11-19T05:14:16;97143.63;;;6.16;100.00
54910;BME280;63189;51.240;9.964;2023-11-19T05:16:41;97144.53;;;6.15;100.00
54910;BME280;63189;51.240;9.964;2023-11-19T05:19:08;97138.41;;;6.18;100.00
54910;BME280;63189;51.240;9.964;2023-11-19T05:21:34;97139.16;;;6.21;100.00
54910;BME280;63189;51.240;9.964;2023-11-19T05:23:59;97124.50;;;6.22;100.00
54910;BME280;63189;51.240;9.964;2023-11-19T05:26:26;97136.59;;;6.21;100.00
54910;BME280;63189;51.240;9.964;2023-11-19T05:28:51;97143.34;;;6.27;100.00
54910;BME280;63189;51.240;9.964;2023-11-19T05:31:17;97132.06;;;6.29;100.00
54910;BME280;63189;51.240;9.964;2023-11-19T05:33:44;97122.56;;;6.30;100.00
54910;BME280;63189;51.240;9.964;2023-11-19T05:36:11;97131.03;;;6.35;100.00
54910;BME280;63189;51.240;9.964;2023-11-19T05:38:36;97124.09;;;6.37;100.00
54910;BME280;63189;51.240;9.964;2023-11-19T05:41:02;97129.22;;;6.39;100.00
54910;BME280;63189;51.240;9.964;2023-11-19T05:43:28;97117.88;;;6.43;100.00
54910;BME280;63189;51.240;9.964;2023-11-19T05:45:53;97129.94;;;6.44;100.00
54910;BME280;63189;51.240;9.964;2023-11-19T05:48:19;97124.59;;;6.50;100.00
54910;BME280;63189;51.240;9.964;2023-11-19T05:50:44;97117.72;;;6.49;100.00
54910;BME280;63189;51.240;9.964;2023-11-19T05:53:09;97113.41;;;6.49;100.00
54910;BME280;63189;51.240;9.964;2023-11-19T05:55:36;97108.13;;;6.52;100.00
54910;BME280;63189;51.240;9.964;2023-11-19T05:58:10;97113.22;;;6.55;100.00
54910;BME280;63189;51.240;9.964;2023-11-19T06:00:37;97116.59;;;6.59;100.00
54910;BME280;63189;51.240;9.964;2023-11-19T06:03:02;97115.63;;;6.61;100.00
54910;BME280;63189;51.240;9.964;2023-11-19T06:05:28;97125.19;;;6.59;100.00
54910;BME280;63189;51.240;9.964;2023-11-19T06:07:53;97125.94;;;6.63;100.00
54910;BME280;63189;51.240;9.964;2023-11-19T06:10:20;97117.22;;;6.67;100.00
54910;BME280;63189;51.240;9.964;2023-11-19T06:12:45;97120.47;;;6.74;100.00
54910;BME280;63189;51.240;9.964;2023-11-19T06:15:11;97121.34;;;6.73;100.00
54910;BME280;63189;51.240;9.964;2023-11-19T06:17:36;97113.53;;;6.74;100.00
54910;BME280;63189;51.240;9.964;2023-11-19T06:20:04;97107.31;;;6.81;100.00
54910;BME280;63189;51.240;9.964;2023-11-19T06:22:30;97137.34;;;6.87;100.00
54910;BME280;63189;51.240;9.964;2023-11-19T06:24:56;97147.69;;;6.88;100.00
54910;BME280;63189;51.240;9.964;2023-11-19T06:27:21;97139.78;;;6.93;100.00
54910;BME280;63189;51.240;9.964;2023-11-19T06:29:47;97129.88;;;7.06;100.00
54910;BME280;63189;51.240;9.964;2023-11-19T06:32:12;97143.31;;;7.20;100.00
54910;BME280;63189;51.240;9.964;2023-11-19T06:34:38;97121.75;;;7.18;100.00
54910;BME280;63189;51.240;9.964;2023-11-19T06:37:03;97132.00;;;7.22;100.00
54910;BME280;63189;51.240;9.964;2023-11-19T06:39:29;97144.81;;;7.27;100.00
54910;BME280;63189;51.240;9.964;2023-11-19T06:41:54;97130.09;;;7.28;100.00
54910;BME280;63189;51.240;9.964;2023-11-19T06:44:20;97131.59;;;7.35;100.00
54910;BME280;63189;51.240;9.964;2023-11-19T06:46:45;97135.91;;;7.36;100.00
54910;BME280;63189;51.240;9.964;2023-11-19T06:49:11;97139.09;;;7.44;100.00
54910;BME280;63189;51.240;9.964;2023-11-19T06:51:41;97138.81;;;7.53;100.00
54910;BME280;63189;51.240;9.964;2023-11-19T06:54:07;97135.09;;;7.62;100.00
54910;BME280;63189;51.240;9.964;2023-11-19T06:56:32;97133.94;;;7.70;100.00
54910;BME280;63189;51.240;9.964;2023-11-19T06:58:58;97131.94;;;7.78;100.00
54910;BME280;63189;51.240;9.964;2023-11-19T07:01:24;97123.91;;;7.86;100.00
54910;BME280;63189;51.240;9.964;2023-11-19T07:03:50;97136.53;;;7.97;100.00
54910;BME280;63189;51.240;9.964;2023-11-19T07:06:16;97130.31;;;8.02;100.00
54910;BME280;63189;51.240;9.964;2023-11-19T07:08:41;97137.03;;;8.08;100.00
54910;BME280;63189;51.240;9.964;2023-11-19T07:11:09;97147.16;;;8.16;100.00
54910;BME280;63189;51.240;9.964;2023-11-19T07:13:37;97160.03;;;8.19;100.00
54910;BME280;63189;51.240;9.964;2023-11-19T07:16:02;97154.72;;;8.22;100.00
54910;BME280;63189;51.240;9.964;2023-11-19T07:18:28;97157.13;;;8.28;100.00
54910;BME280;63189;51.240;9.964;2023-11-19T07:20:54;97159.78;;;8.26;100.00
54910;BME280;63189;51.240;9.964;2023-11-19T07:23:19;97150.25;;;8.27;100.00
54910;BME280;63189;51.240;9.964;2023-11-19T07:25:45;97170.78;;;8.34;100.00
54910;BME280;63189;51.240;9.964;2023-11-19T07:28:12;97155.16;;;8.36;100.00
54910;BME280;63189;51.240;9.964;2023-11-19T07:30:37;97154.13;;;8.40;100.00
54910;BME280;63189;51.240;9.964;2023-11-19T07:33:05;97149.84;;;8.39;100.00
54910;BME280;63189;51.240;9.964;2023-11-19T07:35:31;97164.38;;;8.45;100.00
54910;BME280;63189;51.240;9.964;2023-11-19T07:37:57;97147.94;;;8.44;100.00
54910;BME280;63189;51.240;9.964;2023-11-19T07:40:23;97150.50;;;8.46;100.00
54910;BME280;63189;51.240;9.964;2023-11-19T07:42:48;97146.03;;;8.49;100.00
54910;BME280;63189;51.240;9.964;2023-11-19T07:45:14;97134.97;;;8.44;100.00
54910;BME280;63189;51.240;9.964;2023-11-19T07:47:41;97127.84;;;8.49;100.00
54910;BME280;63189;51.240;9.964;2023-11-19T07:50:13;97119.19;;;8.49;100.00
54910;BME280;63189;51.240;9.964;2023-11-19T07:52:41;97120.94;;;8.48;100.00
54910;BME280;63189;51.240;9.964;2023-11-19T07:55:07;97118.41;;;8.47;100.00
54910;BME280;63189;51.240;9.964;2023-11-19T07:57:32;97138.97;;;8.53;100.00
54910;BME280;63189;51.240;9.964;2023-11-19T08:00:40;97114.78;;;8.51;100.00
54910;BME280;63189;51.240;9.964;2023-11-19T08:02:49;97114.66;;;8.54;100.00
54910;BME280;63189;51.240;9.964;2023-11-19T08:05:14;97136.16;;;8.59;100.00
54910;BME280;63189;51.240;9.964;2023-11-19T08:07:39;97124.81;;;8.61;100.00
54910;BME280;63189;51.240;9.964;2023-11-19T08:10:08;97133.22;;;8.68;100.00
54910;BME280;63189;51.240;9.964;2023-11-19T08:12:36;97144.28;;;8.73;100.00
54910;BME280;63189;51.240;9.964;2023-11-19T08:15:05;97134.69;;;8.75;100.00
54910;BME280;63189;51.240;9.964;2023-11-19T08:17:33;97113.91;;;8.75;100.00
54910;BME280;63189;51.240;9.964;2023-11-19T08:19:58;97135.16;;;8.86;100.00
54910;BME280;63189;51.240;9.964;2023-11-19T08:22:25;97128.16;;;8.88;100.00
54910;BME280;63189;51.240;9.964;2023-11-19T08:24:51;97120.94;;;8.96;100.00
54910;BME280;63189;51.240;9.964;2023-11-19T08:27:16;97124.22;;;9.23;100.00
54910;BME280;63189;51.240;9.964;2023-11-19T08:29:41;97116.75;;;9.60;100.00
54910;BME280;63189;51.240;9.964;2023-11-19T08:32:07;97121.50;;;10.12;100.00
54910;BME280;63189;51.240;9.964;2023-11-19T08:34:32;97137.25;;;10.70;100.00
54910;BME280;63189;51.240;9.964;2023-11-19T08:36:57;97126.47;;;11.17;100.00
54910;BME280;63189;51.240;9.964;2023-11-19T08:39:23;97143.69;;;10.82;100.00
54910;BME280;63189;51.240;9.964;2023-11-19T08:41:49;97132.59;;;10.38;100.00
54910;BME280;63189;51.240;9.964;2023-11-19T08:44:15;97142.53;;;10.08;100.00
54910;BME280;63189;51.240;9.964;2023-11-19T08:46:49;97143.25;;;9.91;100.00
54910;BME280;63189;51.240;9.964;2023-11-19T08:49:15;97132.34;;;9.81;100.00
54910;BME280;63189;51.240;9.964;2023-11-19T08:51:40;97138.34;;;9.83;100.00
54910;BME280;63189;51.240;9.964;2023-11-19T08:54:06;97140.63;;;9.91;100.00
54910;BME280;63189;51.240;9.964;2023-11-19T08:56:34;97144.41;;;10.04;100.00
54910;BME280;63189;51.240;9.964;2023-11-19T08:59:01;97151.34;;;10.87;100.00
54910;BME280;63189;51.240;9.964;2023-11-19T09:01:26;97140.66;;;11.85;100.00
54910;BME280;63189;51.240;9.964;2023-11-19T09:03:51;97136.75;;;12.46;100.00
54910;BME280;63189;51.240;9.964;2023-11-19T09:06:17;97123.84;;;12.93;100.00
54910;BME280;63189;51.240;9.964;2023-11-19T09:08:42;97146.69;;;13.23;100.00
54910;BME280;63189;51.240;9.964;2023-11-19T09:11:08;97146.03;;;13.51;100.00
54910;BME280;63189;51.240;9.964;2023-11-19T09:13:35;97159.91;;;13.69;100.00
54910;BME280;63189;51.240;9.964;2023-11-19T09:16:06;97164.63;;;13.78;98.59
54910;BME280;63189;51.240;9.964;2023-11-19T09:18:31;97156.38;;;14.15;97.72
54910;BME280;63189;51.240;9.964;2023-11-19T09:20:57;97155.28;;;14.20;98.98
54910;BME280;63189;51.240;9.964;2023-11-19T09:23:23;97156.50;;;13.82;95.55
54910;BME280;63189;51.240;9.964;2023-11-19T09:25:51;97149.47;;;13.99;94.68
54910;BME280;63189;51.240;9.964;2023-11-19T09:28:16;97160.56;;;14.34;94.24
54910;BME280;63189;51.240;9.964;2023-11-19T09:30:42;97147.91;;;14.56;91.52
54910;BME280;63189;51.240;9.964;2023-11-19T09:33:08;97164.06;;;15.07;89.37
54910;BME280;63189;51.240;9.964;2023-11-19T09:35:33;97159.56;;;15.09;84.19
54910;BME280;63189;51.240;9.964;2023-11-19T09:37:59;97171.03;;;15.22;88.10
54910;BME280;63189;51.240;9.964;2023-11-19T09:40:24;97180.09;;;15.45;87.00
54910;BME280;63189;51.240;9.964;2023-11-19T09:42:51;97188.91;;;15.44;79.22
54910;BME280;63189;51.240;9.964;2023-11-19T09:45:17;97194.34;;;15.41;84.47
54910;BME280;63189;51.240;9.964;2023-11-19T09:47:44;97196.69;;;15.46;83.54
54910;BME280;63189;51.240;9.964;2023-11-19T09:50:17;97183.38;;;15.06;83.48
54910;BME280;63189;51.240;9.964;2023-11-19T09:52:47;97190.91;;;14.68;87.71
54910;BME280;63189;51.240;9.964;2023-11-19T09:55:12;97191.47;;;15.03;84.45
54910;BME280;63189;51.240;9.964;2023-11-19T09:57:39;97214.34;;;15.15;82.22
54910;BME280;63189;51.240;9.964;2023-11-19T10:00:06;97201.75;;;14.92;79.89
54910;BME280;63189;51.240;9.964;2023-11-19T10:02:34;97197.94;;;14.67;83.81
54910;BME280;63189;51.240;9.964;2023-11-19T10:05:04;97209.19;;;14.39;88.84
54910;BME280;63189;51.240;9.964;2023-11-19T10:07:31;97199.44;;;14.11;88.03
54910;BME280;63189;51.240;9.964;2023-11-19T10:10:01;97200.69;;;14.04;91.51
54910;BME280;63189;51.240;9.964;2023-11-19T10:12:27;97211.44;;;13.84;91.64
54910;BME280;63189;51.240;9.964;2023-11-19T10:14:56;97214.84;;;13.86;87.71
54910;BME280;63189;51.240;9.964;2023-11-19T10:17:26;97214.13;;;13.51;86.03
54910;BME280;63189;51.240;9.964;2023-11-19T10:19:54;97206.78;;;13.73;92.49
54910;BME280;63189;51.240;9.964;2023-11-19T10:22:20;97195.47;;;13.89;92.68
54910;BME280;63189;51.240;9.964;2023-11-19T10:24:45;97188.63;;;14.02;94.96
54910;BME280;63189;51.240;9.964;2023-11-19T10:27:10;97194.69;;;14.18;93.24
54910;BME280;63189;51.240;9.964;2023-11-19T10:29:39;97180.97;;;14.29;92.40
54910;BME280;63189;51.240;9.964;2023-11-19T10:32:04;97192.91;;;14.19;85.84
54910;BME280;63189;51.240;9.964;2023-11-19T10:34:30;97178.81;;;13.90;88.20
54910;BME280;63189;51.240;9.964;2023-11-19T10:36:55;97179.31;;;13.96;90.45
54910;BME280;63189;51.240;9.964;2023-11-19T10:39:21;97190.81;;;13.94;90.59
54910;BME280;63189;51.240;9.964;2023-11-19T10:41:48;97192.41;;;13.96;87.36
54910;BME280;63189;51.240;9.964;2023-11-19T10:44:31;97177.97;;;13.89;88.36
54910;BME280;63189;51.240;9.964;2023-11-19T10:46:59;97190.34;;;13.87;91.39
54910;BME280;63189;51.240;9.964;2023-11-19T10:49:24;97188.56;;;13.88;86.94
54910;BME280;63189;51.240;9.964;2023-11-19T10:51:50;97182.97;;;13.78;88.46
54910;BME280;63189;51.240;9.964;2023-11-19T10:54:19;97184.41;;;13.83;88.56
54910;BME280;63189;51.240;9.964;2023-11-19T10:56:44;97190.81;;;13.94;92.17
54910;BME280;63189;51.240;9.964;2023-11-19T10:59:11;97201.81;;;14.00;91.63
54910;BME280;63189;51.240;9.964;2023-11-19T11:01:45;97196.84;;;13.80;86.07
54910;BME280;63189;51.240;9.964;2023-11-19T11:04:22;97174.97;;;13.65;84.27
54910;BME280;63189;51.240;9.964;2023-11-19T11:06:48;97189.13;;;13.45;89.87
54910;BME280;63189;51.240;9.964;2023-11-19T11:09:14;97179.22;;;13.19;88.07
54910;BME280;63189;51.240;9.964;2023-11-19T11:11:49;97172.25;;;12.85;87.97
54910;BME280;63189;51.240;9.964;2023-11-19T11:14:16;97191.88;;;12.76;91.66
54910;BME280;63189;51.240;9.964;2023-11-19T11:16:43;97193.13;;;12.69;90.99
54910;BME280;63189;51.240;9.964;2023-11-19T11:19:12;97193.38;;;12.64;91.52
54910;BME280;63189;51.240;9.964;2023-11-19T11:21:43;97184.38;;;12.53;93.85
54910;BME280;63189;51.240;9.964;2023-11-19T11:35:44;97207.97;;;12.34;95.75
54910;BME280;63189;51.240;9.964;2023-11-19T11:38:39;97192.66;;;12.26;98.28
54910;BME280;63189;51.240;9.964;2023-11-19T11:41:24;97182.22;;;12.09;97.20
54910;BME280;63189;51.240;9.964;2023-11-19T11:43:52;97206.41;;;12.12;95.20
54910;BME280;63189;51.240;9.964;2023-11-19T11:49:12;97182.53;;;11.84;99.38
54910;BME280;63189;51.240;9.964;2023-11-19T11:54:28;97208.94;;;11.59;96.40
54910;BME280;63189;51.240;9.964;2023-11-19T11:57:11;97205.13;;;11.47;96.59
54910;BME280;63189;51.240;9.964;2023-11-19T11:59:51;97185.78;;;11.33;96.31
54910;BME280;63189;51.240;9.964;2023-11-19T12:02:19;97209.75;;;11.41;97.07
54910;BME280;63189;51.240;9.964;2023-11-19T12:04:52;97218.78;;;11.34;97.82
54910;BME280;63189;51.240;9.964;2023-11-19T12:07:22;97178.00;;;11.12;99.56
54910;BME280;63189;51.240;9.964;2023-11-19T12:09:52;97194.81;;;11.25;100.00
54910;BME280;63189;51.240;9.964;2023-11-19T12:12:20;97210.88;;;11.35;100.00
54910;BME280;63189;51.240;9.964;2023-11-19T12:20:03;97207.56;;;11.32;100.00
54910;BME280;63189;51.240;9.964;2023-11-19T12:22:30;97194.94;;;11.41;100.00
54910;BME280;63189;51.240;9.964;2023-11-19T12:24:56;97191.41;;;11.42;100.00
54910;BME280;63189;51.240;9.964;2023-11-19T12:27:22;97196.38;;;11.67;100.00
54910;BME280;63189;51.240;9.964;2023-11-19T12:29:48;97181.59;;;11.85;100.00
54910;BME280;63189;51.240;9.964;2023-11-19T12:32:13;97192.19;;;12.01;100.00
54910;BME280;63189;51.240;9.964;2023-11-19T12:34:39;97198.94;;;12.05;100.00
54910;BME280;63189;51.240;9.964;2023-11-19T12:37:05;97190.78;;;11.94;100.00
54910;BME280;63189;51.240;9.964;2023-11-19T12:39:30;97198.59;;;11.94;100.00
54910;BME280;63189;51.240;9.964;2023-11-19T12:42:02;97192.28;;;11.80;100.00
54910;BME280;63189;51.240;9.964;2023-11-19T12:44:27;97194.13;;;11.77;100.00
54910;BME280;63189;51.240;9.964;2023-11-19T12:47:06;97201.78;;;11.63;100.00
54910;BME280;63189;51.240;9.964;2023-11-19T12:49:35;97191.78;;;11.53;100.00
54910;BME280;63189;51.240;9.964;2023-11-19T12:52:00;97213.28;;;11.40;100.00
54910;BME280;63189;51.240;9.964;2023-11-19T12:54:34;97191.56;;;11.39;100.00
54910;BME280;63189;51.240;9.964;2023-11-19T12:56:59;97186.34;;;11.39;100.00
54910;BME280;63189;51.240;9.964;2023-11-19T12:59:24;97177.44;;;11.43;100.00
54910;BME280;63189;51.240;9.964;2023-11-19T13:01:57;97173.28;;;11.58;100.00
54910;BME280;63189;51.240;9.964;2023-11-19T13:04:23;97175.41;;;11.69;100.00
54910;BME280;63189;51.240;9.964;2023-11-19T13:06:52;97172.56;;;11.73;100.00
54910;BME280;63189;51.240;9.964;2023-11-19T13:09:25;97168.69;;;11.63;100.00
54910;BME280;63189;51.240;9.964;2023-11-19T13:11:50;97186.47;;;11.55;100.00
54910;BME280;63189;51.240;9.964;2023-11-19T13:14:16;97180.97;;;11.42;100.00
54910;BME280;63189;51.240;9.964;2023-11-19T13:16:42;97177.69;;;11.39;100.00
54910;BME280;63189;51.240;9.964;2023-11-19T13:19:07;97194.44;;;11.33;100.00
54910;BME280;63189;51.240;9.964;2023-11-19T13:21:34;97200.03;;;11.25;100.00